createdAt,value
2019-03-08T00:02:22.669Z,3.80
2019-03-08T00:07:25.384Z,3.70
2019-03-08T00:12:28.446Z,3.80
2019-03-08T00:17:31.647Z,4.00
2019-03-08T00:22:34.084Z,4.30
2019-03-08T00:27:37.104Z,4.50
2019-03-08T00:32:40.134Z,4.70
2019-03-08T00:37:43.432Z,5.00
2019-03-08T00:42:46.951Z,5.30
2019-03-08T00:47:49.795Z,5.70
2019-03-08T00:52:52.260Z,6.00
2019-03-08T00:57:54.707Z,6.20
2019-03-08T01:02:57.131Z,6.40
2019-03-08T01:07:59.609Z,6.50
2019-03-08T01:13:02.955Z,6.60
2019-03-08T01:18:05.617Z,6.70
2019-03-08T01:23:08.684Z,6.60
2019-03-08T01:28:13.155Z,6.50
2019-03-08T01:33:16.400Z,6.50
2019-03-08T01:38:19.238Z,6.50
2019-03-08T01:43:21.672Z,6.60
2019-03-08T01:48:25.504Z,6.60
2019-03-08T01:53:28.024Z,6.60
2019-03-08T01:58:30.816Z,6.50
2019-03-08T02:03:33.450Z,6.40
2019-03-08T02:08:36.352Z,6.30
2019-03-08T02:13:39.248Z,6.10
2019-03-08T02:18:41.951Z,6.00
2019-03-08T02:23:45.453Z,6.10
2019-03-08T02:28:47.847Z,6.20
2019-03-08T02:33:50.559Z,6.30
2019-03-08T02:38:53.016Z,6.30
2019-03-08T02:43:55.459Z,6.40
2019-03-08T02:48:58.113Z,6.40
2019-03-08T02:54:01.705Z,6.40
2019-03-08T02:59:04.111Z,6.40
2019-03-08T03:04:06.731Z,6.50
2019-03-08T03:09:09.168Z,6.50
2019-03-08T03:14:14.708Z,6.50
2019-03-08T03:19:17.376Z,6.50
2019-03-08T03:24:20.347Z,6.60
2019-03-08T03:29:22.906Z,6.70
2019-03-08T03:34:25.416Z,6.70
2019-03-08T03:39:28.681Z,6.80
2019-03-08T03:44:31.284Z,6.80
2019-03-08T03:49:33.844Z,6.60
2019-03-08T03:54:36.872Z,6.50
2019-03-08T03:59:39.277Z,6.40
2019-03-08T04:04:41.792Z,6.30
2019-03-08T04:09:44.230Z,6.30
2019-03-08T04:14:46.832Z,6.30
2019-03-08T04:19:49.347Z,6.30
2019-03-08T04:24:52.169Z,6.30
2019-03-08T04:29:56.722Z,6.30
2019-03-08T04:34:59.647Z,6.20
2019-03-08T04:40:02.307Z,6.20
2019-03-08T04:45:06.096Z,6.20
2019-03-08T04:50:09.979Z,6.20
2019-03-08T04:55:13.724Z,6.20
2019-03-08T05:00:19.073Z,6.20
2019-03-08T05:05:21.541Z,6.20
2019-03-08T05:10:25.005Z,6.20
2019-03-08T05:15:27.476Z,6.10
2019-03-08T05:20:30.732Z,6.00
2019-03-08T05:25:33.299Z,6.00
2019-03-08T05:30:35.774Z,6.00
2019-03-08T05:35:39.296Z,6.00
2019-03-08T05:40:42.184Z,6.00
2019-03-08T05:45:46.167Z,6.00
2019-03-08T05:50:48.576Z,6.10
2019-03-08T05:55:51.103Z,6.10
2019-03-08T06:00:53.515Z,6.20
2019-03-08T06:05:56.240Z,6.40
2019-03-08T06:10:59.743Z,6.40
2019-03-08T06:16:02.664Z,6.40
2019-03-08T06:21:05.791Z,6.60
2019-03-08T06:26:08.284Z,6.80
2019-03-08T06:31:10.721Z,7.00
2019-03-08T06:36:13.427Z,7.20
2019-03-08T06:41:17.293Z,7.30
2019-03-08T06:46:19.821Z,7.50
2019-03-08T06:51:22.278Z,7.60
2019-03-08T06:56:25.572Z,7.80
2019-03-08T07:01:33.322Z,8.10
2019-03-08T07:06:36.134Z,8.20
2019-03-08T07:11:38.871Z,8.40
2019-03-08T07:16:41.888Z,8.60
2019-03-08T07:21:51.681Z,8.80
2019-03-08T07:27:03.460Z,8.90
2019-03-08T07:32:17.567Z,9.10
2019-03-08T07:37:45.992Z,9.10
2019-03-08T07:43:08.071Z,9.10
2019-03-08T07:48:24.325Z,9.10
2019-03-08T07:53:35.694Z,9.00
2019-03-08T07:58:57.731Z,9.00
2019-03-08T08:04:18.292Z,9.40
2019-03-08T08:09:32.359Z,9.70
2019-03-08T08:14:54.984Z,9.70
2019-03-08T08:20:26.112Z,9.60
2019-03-08T08:25:55.243Z,9.70
2019-03-08T08:31:17.719Z,9.60
2019-03-08T08:36:45.689Z,9.70
2019-03-08T08:42:19.495Z,9.90
2019-03-08T08:47:47.459Z,9.90
2019-03-08T08:53:08.205Z,10.00
2019-03-08T08:58:48.148Z,10.40
2019-03-08T09:04:01.448Z,10.60
2019-03-08T09:09:26.532Z,10.80
2019-03-08T09:14:51.467Z,11.00
2019-03-08T09:20:28.703Z,11.20
2019-03-08T09:25:39.143Z,11.10
2019-03-08T09:30:50.539Z,10.90
2019-03-08T09:35:58.089Z,11.00
2019-03-08T09:41:29.293Z,11.20
2019-03-08T09:46:54.321Z,11.60
2019-03-08T09:52:24.761Z,11.60
2019-03-08T09:57:52.101Z,11.80
2019-03-08T10:03:14.762Z,11.70
2019-03-08T10:08:44.760Z,11.80
2019-03-08T10:13:59.250Z,11.90
2019-03-08T10:19:21.389Z,12.20
2019-03-08T10:24:58.525Z,12.30
2019-03-08T10:30:07.430Z,11.70
2019-03-08T10:35:36.789Z,11.50
2019-03-08T10:40:58.202Z,11.30
2019-03-08T10:46:21.256Z,11.20
2019-03-08T10:51:52.455Z,11.50
2019-03-08T10:57:17.586Z,11.60
2019-03-08T11:02:38.470Z,12.20
2019-03-08T11:08:05.127Z,12.80
2019-03-08T11:13:29.959Z,12.70
2019-03-08T11:18:40.174Z,12.90
2019-03-08T11:24:08.081Z,12.80
2019-03-08T11:29:31.432Z,12.40
2019-03-08T11:34:51.803Z,12.30
2019-03-08T11:39:54.043Z,12.30
2019-03-08T11:45:14.254Z,12.60
2019-03-08T11:50:29.538Z,12.70
2019-03-08T11:55:41.134Z,12.80
2019-03-08T12:01:08.947Z,13.20
2019-03-08T12:06:36.772Z,13.40
2019-03-08T12:12:10.669Z,13.30
2019-03-08T12:17:37.696Z,13.40
2019-03-08T12:22:58.240Z,13.30
2019-03-08T12:28:10.341Z,13.40
2019-03-08T12:33:35.374Z,13.60
2019-03-08T12:38:51.507Z,13.70
2019-03-08T12:44:11.815Z,13.50
2019-03-08T12:49:22.546Z,13.30
2019-03-08T12:54:50.423Z,13.10
2019-03-08T13:00:24.464Z,12.80
2019-03-08T13:05:45.380Z,12.80
2019-03-08T13:10:48.372Z,12.70
2019-03-08T13:15:51.419Z,12.70
2019-03-08T13:20:54.255Z,12.90
2019-03-08T13:25:57.582Z,13.00
2019-03-08T13:31:04.117Z,13.20
2019-03-08T13:36:07.096Z,13.40
2019-03-08T13:41:09.951Z,13.70
2019-03-08T13:46:13.111Z,13.60
2019-03-08T13:51:22.558Z,13.60
2019-03-08T13:56:25.087Z,13.40
2019-03-08T14:01:27.507Z,13.30
2019-03-08T14:06:30.967Z,13.00
2019-03-08T14:11:34.271Z,12.30
2019-03-08T14:16:36.669Z,11.30
2019-03-08T14:21:39.502Z,10.70
2019-03-08T14:26:41.955Z,10.60
2019-03-08T14:32:04.129Z,10.60
2019-03-08T14:37:06.683Z,10.90
2019-03-08T14:42:30.451Z,11.10
2019-03-08T14:47:35.919Z,11.00
2019-03-08T14:52:38.349Z,11.10
2019-03-08T14:57:41.923Z,11.80
2019-03-08T15:02:47.119Z,13.00
2019-03-08T15:07:50.224Z,13.90
2019-03-08T15:12:53.212Z,13.90
2019-03-08T15:17:55.618Z,13.30
2019-03-08T15:22:58.103Z,13.70
2019-03-08T15:28:00.480Z,14.50
2019-03-08T15:33:04.219Z,13.60
2019-03-08T15:38:06.876Z,13.30
2019-03-08T15:43:13.471Z,13.50
2019-03-08T15:48:14.548Z,12.90
2019-03-08T15:53:18.393Z,12.20
2019-03-08T15:58:20.772Z,11.40
2019-03-08T16:03:23.797Z,10.90
2019-03-08T16:08:27.980Z,10.60
2019-03-08T16:13:30.333Z,10.20
2019-03-08T16:18:32.760Z,9.80
2019-03-08T16:23:35.202Z,9.60
2019-03-08T16:28:38.911Z,9.50
2019-03-08T16:33:44.749Z,9.60
2019-03-08T16:39:18.375Z,9.50
2019-03-08T16:44:31.017Z,9.70
2019-03-08T16:49:53.588Z,9.60
2019-03-08T16:55:21.161Z,9.40
2019-03-08T17:00:37.075Z,9.10
2019-03-08T17:05:55.560Z,8.80
2019-03-08T17:11:22.251Z,8.70
2019-03-08T17:16:42.624Z,8.50
2019-03-08T17:22:13.503Z,8.30
2019-03-08T17:27:39.894Z,8.10
2019-03-08T17:33:00.652Z,8.20
2019-03-08T17:38:25.604Z,8.20
2019-03-08T17:44:06.002Z,8.30
2019-03-08T17:49:26.471Z,8.40
2019-03-08T17:54:44.749Z,8.40
2019-03-08T17:59:57.111Z,8.20
2019-03-08T18:05:08.799Z,8.20
2019-03-08T18:10:37.238Z,8.00
2019-03-08T18:15:58.427Z,7.80
2019-03-08T18:21:14.008Z,7.70
2019-03-08T18:26:48.539Z,7.50
2019-03-08T18:32:13.816Z,7.10
2019-03-08T18:37:38.829Z,6.80
2019-03-08T18:42:50.927Z,6.50
2019-03-08T18:48:11.598Z,6.20
2019-03-08T18:53:28.787Z,5.90
2019-03-08T18:58:49.441Z,5.60
2019-03-08T19:04:26.381Z,5.50
2019-03-08T19:09:48.947Z,5.50
2019-03-08T19:15:11.016Z,5.50
2019-03-08T19:20:42.068Z,5.70
2019-03-08T19:26:01.781Z,5.80
2019-03-08T19:31:19.735Z,5.70
2019-03-08T19:36:33.674Z,5.50
2019-03-08T19:41:53.655Z,5.30
2019-03-08T19:47:16.360Z,5.00
2019-03-08T19:52:39.848Z,4.80
2019-03-08T19:58:00.400Z,4.60
2019-03-08T20:03:28.819Z,4.50
2019-03-08T20:08:51.420Z,4.40
2019-03-08T20:14:07.236Z,4.30
2019-03-08T20:19:26.355Z,4.10
2019-03-08T20:25:00.559Z,4.00
2019-03-08T20:30:24.721Z,3.90
2019-03-08T20:35:43.133Z,3.80
2019-03-08T20:41:10.093Z,3.70
2019-03-08T20:46:51.099Z,3.70
2019-03-08T20:51:54.968Z,3.60
2019-03-08T20:56:57.809Z,3.60
2019-03-08T21:02:01.656Z,3.60
2019-03-08T21:07:05.166Z,3.60
2019-03-08T21:12:07.898Z,3.60
2019-03-08T21:17:11.231Z,3.60
2019-03-08T21:22:14.066Z,3.60
2019-03-08T21:27:17.336Z,3.60
2019-03-08T21:32:20.749Z,3.70
2019-03-08T21:37:24.425Z,3.70
2019-03-08T21:42:27.192Z,3.70
2019-03-08T21:47:29.589Z,3.70
2019-03-08T21:52:32.147Z,3.70
2019-03-08T21:57:34.663Z,3.70
2019-03-08T22:02:37.179Z,3.70
2019-03-08T22:07:39.689Z,3.70
2019-03-08T22:12:42.875Z,3.70
2019-03-08T22:17:46.117Z,3.90
2019-03-08T22:22:49.111Z,4.10
2019-03-08T22:27:51.488Z,4.40
2019-03-08T22:32:53.997Z,4.60
2019-03-08T22:37:56.446Z,4.80
2019-03-08T22:42:59.152Z,4.90
2019-03-08T22:48:02.324Z,5.10
2019-03-08T22:53:04.828Z,5.20
2019-03-08T22:58:07.671Z,5.20
2019-03-08T23:03:10.167Z,5.10
2019-03-08T23:08:12.731Z,5.00
2019-03-08T23:13:15.608Z,5.10
2019-03-08T23:18:17.978Z,5.30
2019-03-08T23:23:20.475Z,5.30
2019-03-08T23:28:45.692Z,5.30
2019-03-08T23:33:48.076Z,5.20
2019-03-08T23:38:50.595Z,5.20
2019-03-08T23:43:53.475Z,5.20
2019-03-08T23:48:55.887Z,5.30
2019-03-08T23:53:58.311Z,5.30
2019-03-08T23:59:00.714Z,5.30
